CYGX

Gillam Airport

Gillam, Manitoba, Canada
METAR CYGX 140800Z 20008KT 15SM BKN100 M07/M09 A2944 RMK AC5 SLP983
Observed Flight Rules
Dec-14 @ 08:00 UTC (57 minutes ago) Visual Flight Rules
Wind Visibility Clouds
200° at 8 knots 15 miles
  • Broken at 10,000' AGL
Temperatures Readings
Current -7°C / 19°F
Dewpoint -9°C / 16°F
Humidity 86%
Altimeter 29.44" Hg
Pressure 998.3 hPa
Elevation 145
METAR CYGX 140800Z 20008KT 15SM BKN100 M07/M09 A2944 RMK AC5 SLP983
Observed Flight Rules
Dec-14 @ 08:00 UTC
(57 minutes ago)
VFR
Wind Visibility
200° at 8 knots 15 miles
Clouds
  • Broken at 10,000' AGL
Temperature Dewpoint
-7°C / 19°F -9°C / 16°F
Humidity Altimeter Pressure
86% 29.44" Hg 998.3 hPa